Berlaar, Belgium
Current Conditions -  °F | °C
As of 8:20 AM on Wednesday 22 Oct 2014 (Local Time) from EBAW Reporting Station
Rain Showers Rain Showers  
Wind Chill: 42°   Ceiling: 3400
Heat Index: 48°   Visibility: 6mi
Dew Point: 41°   Wind: 18mph
Humidity: 76%   Direction: 310°NW
Pressure: 30.06"   Gusts: NA
Location:  51.12°N, 4.66°E
Report Text: EBAW 220620Z 31016KT 9999 -SHRA FEW021 SCT027 BKN034 09/05 Q1018 TEMPO 29018G28KT 4500 SHRA
Loading
Personal Weather Stations






























Interactive Weather Map
Tropical Storm Tracking
New forecast layout! Learn more

10-Day Weather Forecast

Advertisements
Track Severe Weather on mobile